This demonstration page uses our WeatherBlox Daily Observations layout. Learn more.

Left ArrowRight Arrow

Hourly Observations for May 28, 2020

Temp ( °F °C ) Dew Point ( °F °C ) Humidity (%) Winds ( mph kmh ) Pressure ( in mb ) Visibility ( mi km ) Precip ( " mm )
12:54 am 00:54 Cloudy 67 19.4 60 15.6 79 79 NNW 7 11 29.9 1013 10 16.0934 0 0
1:54 am 01:54 Cloudy 67 19.4 60 15.6 79 79 NNW 6 9 29.9 1013 10 16.0934 0 0
2:54 am 02:54 Cloudy 67 19.4 60 15.6 79 79 NNW 7 11 29.9 1013 10 16.0934 0 0
3:54 am 03:54 Mostly Clear 65 18.3 59 15 81 81 NNW 7 11 29.9 1013 10 16.0934 0 0
4:54 am 04:54 Cloudy 66 18.9 59 15 78 78 NNW 10 17 29.91 1013 10 16.0934 0 0
5:54 am 05:54 Partly Cloudy 63 17.2 57 13.9 81 81 N 8 13 29.92 1013 10 16.0934 0 0
6:54 am 06:54 Sunny 63 17.2 56 13.3 78 78 N 10 17 29.93 1014 9 14.48406 0 0
7:54 am 07:54 Sunny 67 19.4 56 13.3 68 68 NNW 12 19 29.95 1014 10 16.0934 0 0
8:54 am 08:54 Sunny 69 20.6 56 13.3 63 63 N 22 35 29.97 1015 10 16.0934 0 0
9:54 am 09:54 Sunny 73 22.8 54 12.2 51 51 N 20 31 29.96 1015 10 16.0934 0 0
10:54 am 10:54 Sunny 74 23.3 53 11.7 48 48 N 24 39 29.97 1015 10 16.0934 0 0
11:54 am 11:54 Sunny 78 25.6 52 11.1 40 40 N 29 46 29.99 1016 10 16.0934 0 0
12:54 pm 12:54 Sunny 79 26.1 54 12.2 42 42 N 18 30 30 1016 10 16.0934 0 0
1:54 pm 13:54 Sunny 80 26.7 55 12.8 42 42 NNE 21 33 30 1016 10 16.0934 0 0
2:54 pm 14:54 Mostly Sunny 81 27.2 51 10.6 35 35 N 22 35 29.99 1016 10 16.0934 0 0
3:54 pm 15:54 Sunny 82 27.8 48 8.9 31 31 NNE 21 33 29.99 1016 10 16.0934 0 0
4:54 pm 16:54 Mostly Sunny 83 28.3 48 8.9 30 30 N 23 37 29.99 1016 10 16.0934 0 0
5:54 pm 17:54 Sunny 81 27.2 46 7.8 29 29 N 22 35 30.01 1016 10 16.0934 0 0
6:54 pm 18:54 Sunny 79 26.1 44 6.7 29 29 NNW 21 33 30.02 1017 10 16.0934 0 0
7:54 pm 19:54 Sunny 75 23.9 45 7.2 34 34 N 17 28 30.04 1017 10 16.0934 0 0
8:54 pm 20:54 Clear 72 22.2 42 5.6 34 34 NNW 12 19 30.06 1018 10 16.0934 0 0
9:54 pm 21:54 Clear 67 19.4 44 6.7 44 44 NW 6 9 30.09 1019 10 16.0934 0 0
10:54 pm 22:54 Clear 64 17.8 44 6.7 48 48 NW 7 11 30.11 1020 10 16.0934 0 0
11:54 pm 23:54 Clear 63 17.2 43 6.1 48 48 NNW 7 11 30.11 1020 10 16.0934 0 0

Powered by AerisWeather